createdAt,value
2023-03-16T00:01:39.193Z,86.24
2023-03-16T00:04:40.900Z,86.01
2023-03-16T00:07:44.040Z,85.07
2023-03-16T00:10:47.438Z,84.92
2023-03-16T00:13:49.141Z,85.03
2023-03-16T00:16:50.752Z,86.09
2023-03-16T00:19:57.169Z,86.45
2023-03-16T00:23:00.831Z,86.26
2023-03-16T00:26:03.526Z,85.57
2023-03-16T00:29:05.179Z,83.99
2023-03-16T00:32:07.136Z,82.96
2023-03-16T00:35:09.853Z,82.86
2023-03-16T00:38:13.225Z,81.11
2023-03-16T00:41:15.688Z,80.86
2023-03-16T00:44:17.488Z,80.60
2023-03-16T00:47:19.073Z,80.56
2023-03-16T00:50:22.469Z,80.82
2023-03-16T00:53:25.536Z,80.27
2023-03-16T00:56:27.397Z,80.27
2023-03-16T00:59:30.509Z,79.93
2023-03-16T01:02:32.753Z,79.64
2023-03-16T01:05:34.241Z,79.62
2023-03-16T01:08:37.736Z,79.19
2023-03-16T01:11:39.601Z,79.63
2023-03-16T01:14:41.626Z,79.63
2023-03-16T01:17:43.218Z,80.01
2023-03-16T01:20:50.607Z,80.52
2023-03-16T01:23:53.898Z,81.25
2023-03-16T01:26:55.778Z,81.53
2023-03-16T01:29:57.254Z,81.87
2023-03-16T01:32:59.267Z,82.20
2023-03-16T01:36:02.490Z,83.35
2023-03-16T01:39:11.276Z,83.86
2023-03-16T01:42:17.890Z,83.73
2023-03-16T01:45:38.360Z,84.30
2023-03-16T01:48:43.024Z,84.68
2023-03-16T01:51:46.728Z,84.89
2023-03-16T01:54:52.862Z,84.90
2023-03-16T01:57:54.875Z,85.68
2023-03-16T02:00:58.112Z,85.75
2023-03-16T02:04:05.997Z,85.43
2023-03-16T02:07:09.045Z,85.27
2023-03-16T02:10:13.275Z,84.85
2023-03-16T02:13:20.481Z,85.40
2023-03-16T02:16:22.852Z,85.65
2023-03-16T02:19:30.527Z,86.06
2023-03-16T02:22:36.238Z,86.22
2023-03-16T02:25:41.619Z,86.53
2023-03-16T02:28:48.568Z,86.71
2023-03-16T02:31:52.386Z,86.79
2023-03-16T02:34:55.361Z,86.49
2023-03-16T02:37:56.964Z,86.64
2023-03-16T02:41:10.732Z,86.37
2023-03-16T02:44:16.093Z,86.51
2023-03-16T02:47:24.619Z,86.19
2023-03-16T02:50:26.449Z,86.89
2023-03-16T02:53:28.364Z,86.66
2023-03-16T02:56:32.562Z,86.79
2023-03-16T02:59:34.511Z,87.51
2023-03-16T03:02:38.216Z,87.19
2023-03-16T03:05:40.160Z,87.66
2023-03-16T03:08:42.630Z,87.28
2023-03-16T03:11:44.520Z,87.68
2023-03-16T03:14:46.157Z,88.22
2023-03-16T03:17:52.940Z,88.28
2023-03-16T03:20:55.408Z,88.01
2023-03-16T03:23:56.931Z,88.38
2023-03-16T03:27:05.702Z,88.05
2023-03-16T03:30:10.463Z,88.09
2023-03-16T03:33:13.497Z,87.93
2023-03-16T03:36:15.164Z,88.54
2023-03-16T03:39:18.942Z,88.45
2023-03-16T03:42:26.238Z,88.09
2023-03-16T03:45:28.115Z,89.03
2023-03-16T03:48:31.074Z,89.26
2023-03-16T03:51:33.089Z,89.00
2023-03-16T03:54:41.419Z,88.80
2023-03-16T03:57:49.686Z,89.02
2023-03-16T04:00:52.114Z,88.40
2023-03-16T04:03:55.421Z,88.83
2023-03-16T04:06:57.208Z,88.83
2023-03-16T04:09:58.998Z,88.77
2023-03-16T04:13:11.914Z,88.64
2023-03-16T04:16:16.482Z,89.25
2023-03-16T04:19:22.729Z,89.21
2023-03-16T04:22:25.367Z,89.38
2023-03-16T04:25:27.484Z,89.93
2023-03-16T04:28:29.832Z,89.83
2023-03-16T04:31:32.443Z,90.49
2023-03-16T04:34:36.238Z,89.82
2023-03-16T04:37:41.387Z,89.95
2023-03-16T04:40:43.845Z,90.38
2023-03-16T04:43:50.612Z,90.48
2023-03-16T04:46:55.862Z,90.62
2023-03-16T04:50:02.777Z,90.77
2023-03-16T04:53:05.499Z,90.99
2023-03-16T04:56:08.577Z,90.47
2023-03-16T04:59:12.005Z,90.98
2023-03-16T05:02:22.984Z,90.77
2023-03-16T05:05:26.350Z,90.16
2023-03-16T05:08:27.960Z,90.83
2023-03-16T05:11:29.896Z,90.45
2023-03-16T05:14:36.213Z,90.86
2023-03-16T05:17:55.218Z,90.78
2023-03-16T05:20:58.804Z,91.03
2023-03-16T05:24:08.049Z,90.77
2023-03-16T05:27:10.115Z,91.49
2023-03-16T05:30:13.145Z,90.35
2023-03-16T05:33:14.958Z,90.96
2023-03-16T05:36:21.849Z,91.34
2023-03-16T05:39:28.712Z,91.68
2023-03-16T05:42:30.344Z,91.46
2023-03-16T05:45:36.157Z,91.35
2023-03-16T05:48:43.752Z,92.19
2023-03-16T05:51:50.712Z,91.81
2023-03-16T05:54:52.501Z,91.88
2023-03-16T05:57:54.260Z,91.96
2023-03-16T06:00:59.088Z,92.04
2023-03-16T06:04:05.527Z,92.05
2023-03-16T06:07:12.287Z,91.57
2023-03-16T06:10:15.042Z,92.16
2023-03-16T06:13:17.472Z,91.98
2023-03-16T06:16:19.601Z,92.17
2023-03-16T06:19:21.725Z,91.68
2023-03-16T06:22:30.447Z,91.84
2023-03-16T06:25:32.639Z,91.89
2023-03-16T06:28:34.872Z,92.26
2023-03-16T06:31:36.776Z,91.49
2023-03-16T06:34:38.919Z,91.94
2023-03-16T06:37:43.199Z,91.50
2023-03-16T06:41:03.995Z,91.11
2023-03-16T06:44:09.048Z,91.13
2023-03-16T06:47:15.475Z,91.22
2023-03-16T06:50:17.483Z,90.05
2023-03-16T06:53:22.106Z,89.88
2023-03-16T06:56:24.240Z,89.45
2023-03-16T06:59:26.246Z,88.31
2023-03-16T07:02:28.305Z,88.53
2023-03-16T07:05:30.370Z,87.06
2023-03-16T07:08:35.218Z,87.57
2023-03-16T07:11:37.690Z,87.64
2023-03-16T07:14:39.430Z,87.56
2023-03-16T07:17:44.037Z,87.38
2023-03-16T07:20:46.858Z,87.92
2023-03-16T07:23:51.971Z,87.66
2023-03-16T07:26:59.354Z,87.19
2023-03-16T07:30:06.188Z,87.25
2023-03-16T07:33:11.935Z,86.68
2023-03-16T07:36:14.510Z,86.36
2023-03-16T07:39:23.914Z,86.00
2023-03-16T07:42:29.458Z,85.67
2023-03-16T07:45:38.797Z,85.10
2023-03-16T07:48:42.547Z,84.80
2023-03-16T07:51:44.351Z,84.35
2023-03-16T07:54:48.922Z,84.08
2023-03-16T07:57:51.209Z,83.86
2023-03-16T08:01:01.713Z,84.35
2023-03-16T08:04:03.601Z,83.89
2023-03-16T08:07:05.691Z,83.95
2023-03-16T08:10:24.121Z,83.28
2023-03-16T08:13:56.634Z,81.95
2023-03-16T08:17:01.837Z,82.93
2023-03-16T08:20:08.444Z,82.13
2023-03-16T08:23:12.048Z,82.50
2023-03-16T08:26:18.328Z,81.87
2023-03-16T08:29:21.312Z,81.90
2023-03-16T08:32:23.544Z,80.84
2023-03-16T08:35:25.975Z,81.50
2023-03-16T08:38:28.017Z,81.59
2023-03-16T08:41:35.070Z,81.10
2023-03-16T08:44:41.563Z,81.20
2023-03-16T08:47:43.612Z,80.52
2023-03-16T08:50:47.062Z,80.32
2023-03-16T08:53:48.624Z,79.95
2023-03-16T08:56:51.929Z,79.78
2023-03-16T08:59:53.742Z,79.91
2023-03-16T09:02:55.757Z,79.66
2023-03-16T09:06:00.964Z,79.05
2023-03-16T09:09:02.649Z,78.07
2023-03-16T09:12:06.438Z,78.79
2023-03-16T09:15:10.179Z,77.69
2023-03-16T09:18:11.974Z,77.09
2023-03-16T09:21:14.005Z,76.81
2023-03-16T09:24:15.853Z,76.51
2023-03-16T09:27:19.016Z,76.12
2023-03-16T09:30:20.886Z,75.86
2023-03-16T09:33:22.944Z,75.19
2023-03-16T09:36:24.503Z,74.99
2023-03-16T09:39:26.229Z,75.30
2023-03-16T09:42:33.988Z,74.48
2023-03-16T09:45:38.675Z,73.84
2023-03-16T09:48:41.240Z,71.81
2023-03-16T09:51:44.844Z,72.50
2023-03-16T09:54:49.549Z,71.05
2023-03-16T09:57:53.526Z,71.82
2023-03-16T10:00:59.693Z,71.39
2023-03-16T10:04:19.732Z,70.96
2023-03-16T10:07:32.383Z,68.80
2023-03-16T10:10:47.611Z,69.01
2023-03-16T10:13:53.160Z,68.89
2023-03-16T10:16:57.041Z,67.42
2023-03-16T10:20:01.181Z,64.14
2023-03-16T10:23:13.640Z,66.11
2023-03-16T10:26:20.174Z,66.36
2023-03-16T10:29:23.631Z,65.38
2023-03-16T10:32:30.634Z,63.13
2023-03-16T10:35:38.260Z,64.93
2023-03-16T10:38:41.250Z,65.54
2023-03-16T10:41:44.033Z,63.59
2023-03-16T10:44:47.652Z,63.27
2023-03-16T10:47:50.063Z,63.07
2023-03-16T10:50:54.530Z,62.77
2023-03-16T10:54:07.015Z,62.90
2023-03-16T10:57:15.568Z,60.90
2023-03-16T11:00:21.257Z,62.41
2023-03-16T11:03:27.501Z,62.48
2023-03-16T11:06:32.544Z,62.42
2023-03-16T11:09:35.543Z,61.84
2023-03-16T11:12:39.873Z,61.69
2023-03-16T11:15:47.810Z,62.32
2023-03-16T11:18:53.573Z,61.15
2023-03-16T11:21:57.583Z,59.46
2023-03-16T11:25:07.307Z,59.58
2023-03-16T11:28:13.289Z,60.95
2023-03-16T11:31:20.875Z,60.10
2023-03-16T11:34:27.475Z,58.32
2023-03-16T11:37:35.695Z,55.52
2023-03-16T11:40:41.456Z,56.07
2023-03-16T11:43:53.262Z,58.58
2023-03-16T11:47:01.607Z,57.53
2023-03-16T11:50:09.985Z,55.58
2023-03-16T11:53:17.426Z,54.20
2023-03-16T11:56:24.063Z,54.00
2023-03-16T11:59:34.118Z,53.56
2023-03-16T12:02:45.282Z,51.59
2023-03-16T12:05:54.522Z,54.06
2023-03-16T12:09:23.789Z,52.82
2023-03-16T12:12:29.733Z,52.86
2023-03-16T12:15:36.263Z,54.92
2023-03-16T12:18:43.713Z,54.51
2023-03-16T12:21:48.583Z,53.84
2023-03-16T12:24:50.489Z,54.97
2023-03-16T12:27:55.465Z,56.05
2023-03-16T12:31:02.189Z,53.30
2023-03-16T12:34:19.491Z,53.56
2023-03-16T12:37:32.061Z,54.67
2023-03-16T12:40:40.589Z,55.29
2023-03-16T12:43:47.687Z,54.29
2023-03-16T12:46:53.540Z,53.63
2023-03-16T12:50:03.800Z,52.68
2023-03-16T12:53:05.874Z,52.04
2023-03-16T12:56:12.326Z,54.21
2023-03-16T12:59:16.896Z,54.67
2023-03-16T13:02:20.324Z,53.76
2023-03-16T13:05:31.475Z,50.32
2023-03-16T13:08:42.675Z,50.46
2023-03-16T13:11:50.017Z,50.94
2023-03-16T13:14:55.907Z,52.20
2023-03-16T13:18:17.597Z,50.73
2023-03-16T13:21:21.684Z,51.86
2023-03-16T13:24:26.933Z,51.76
2023-03-16T13:27:30.148Z,51.34
2023-03-16T13:30:33.166Z,49.69
2023-03-16T13:33:38.345Z,52.38
2023-03-16T13:36:41.833Z,51.22
2023-03-16T13:39:51.574Z,50.15
2023-03-16T13:42:55.383Z,49.08
2023-03-16T13:45:57.475Z,50.82
2023-03-16T13:49:02.402Z,50.52
2023-03-16T13:52:06.009Z,53.29
2023-03-16T13:55:14.743Z,51.90
2023-03-16T13:58:20.716Z,51.67
2023-03-16T14:01:24.857Z,53.58
2023-03-16T14:04:28.805Z,51.87
2023-03-16T14:07:36.724Z,53.00
2023-03-16T14:10:40.494Z,52.63
2023-03-16T14:13:42.874Z,53.59
2023-03-16T14:16:45.648Z,54.18
2023-03-16T14:19:48.267Z,54.71
2023-03-16T14:22:52.784Z,54.16
2023-03-16T14:25:54.817Z,55.36
2023-03-16T14:28:58.495Z,55.23
2023-03-16T14:32:00.450Z,54.62
2023-03-16T14:35:03.952Z,55.04
2023-03-16T14:38:28.570Z,55.52
2023-03-16T14:41:31.752Z,55.28
2023-03-16T14:44:35.640Z,55.97
2023-03-16T14:47:40.789Z,56.51
2023-03-16T14:50:45.052Z,56.60
2023-03-16T14:53:48.723Z,55.71
2023-03-16T14:56:51.183Z,56.12
2023-03-16T14:59:52.917Z,54.76
2023-03-16T15:02:58.102Z,55.93
2023-03-16T15:06:01.534Z,54.47
2023-03-16T15:09:04.627Z,53.26
2023-03-16T15:12:13.042Z,55.33
2023-03-16T15:15:16.152Z,54.95
2023-03-16T15:18:17.859Z,55.69
2023-03-16T15:21:21.142Z,55.25
2023-03-16T15:24:24.218Z,55.44
2023-03-16T15:27:28.119Z,53.71
2023-03-16T15:30:30.757Z,54.35
2023-03-16T15:33:32.565Z,53.77
2023-03-16T15:36:34.237Z,52.07
2023-03-16T15:39:37.916Z,50.64
2023-03-16T15:42:39.553Z,51.48
2023-03-16T15:45:41.322Z,50.76
2023-03-16T15:48:44.351Z,49.88
2023-03-16T15:51:46.185Z,49.07
2023-03-16T15:54:49.086Z,51.13
2023-03-16T15:57:57.162Z,49.42
2023-03-16T16:00:59.961Z,50.90
2023-03-16T16:04:01.716Z,50.40
2023-03-16T16:07:07.361Z,51.81
2023-03-16T16:10:12.515Z,51.91
2023-03-16T16:13:18.111Z,51.13
2023-03-16T16:16:20.240Z,52.03
2023-03-16T16:19:22.204Z,51.27
2023-03-16T16:22:24.718Z,51.78
2023-03-16T16:25:32.840Z,51.76
2023-03-16T16:28:35.128Z,51.50
2023-03-16T16:31:36.875Z,52.60
2023-03-16T16:34:38.712Z,52.23
2023-03-16T16:37:40.744Z,51.82
2023-03-16T16:40:46.406Z,53.63
2023-03-16T16:43:48.137Z,53.58
2023-03-16T16:46:50.880Z,53.41
2023-03-16T16:49:52.872Z,52.97
2023-03-16T16:52:55.549Z,53.26
2023-03-16T16:55:58.921Z,53.77
2023-03-16T16:59:02.540Z,53.76
2023-03-16T17:02:18.626Z,53.99
2023-03-16T17:05:21.542Z,54.73
2023-03-16T17:08:23.727Z,55.45
2023-03-16T17:11:30.936Z,55.56
2023-03-16T17:14:33.040Z,55.62
2023-03-16T17:17:34.756Z,55.93
2023-03-16T17:20:36.489Z,56.46
2023-03-16T17:23:38.584Z,57.83
2023-03-16T17:26:43.841Z,57.26
2023-03-16T17:29:45.949Z,57.92
2023-03-16T17:32:47.743Z,58.08
2023-03-16T17:35:49.397Z,58.38
2023-03-16T17:38:51.242Z,58.84
2023-03-16T17:41:57.454Z,58.97
2023-03-16T17:44:59.993Z,59.25
2023-03-16T17:48:02.414Z,59.95
2023-03-16T17:51:07.241Z,60.48
2023-03-16T17:54:09.000Z,60.54
2023-03-16T17:57:16.498Z,61.28
2023-03-16T18:00:19.449Z,61.88
2023-03-16T18:03:22.196Z,61.88
2023-03-16T18:06:25.563Z,62.50
2023-03-16T18:09:28.893Z,62.90
2023-03-16T18:12:32.768Z,63.33
2023-03-16T18:15:36.478Z,63.04
2023-03-16T18:18:40.270Z,63.67
2023-03-16T18:21:42.485Z,63.12
2023-03-16T18:24:45.017Z,63.80
2023-03-16T18:27:48.210Z,64.07
2023-03-16T18:30:54.225Z,64.46
2023-03-16T18:33:56.962Z,64.25
2023-03-16T18:37:00.820Z,65.00
2023-03-16T18:40:02.495Z,64.70
2023-03-16T18:43:06.437Z,65.01
2023-03-16T18:46:11.758Z,65.02
2023-03-16T18:49:14.973Z,65.12
2023-03-16T18:52:18.846Z,65.62
2023-03-16T18:55:21.482Z,65.87
2023-03-16T18:58:24.916Z,65.45
2023-03-16T19:01:27.717Z,66.11
2023-03-16T19:04:30.791Z,66.13
2023-03-16T19:07:33.891Z,66.72
2023-03-16T19:10:37.780Z,66.44
2023-03-16T19:13:42.182Z,66.96
2023-03-16T19:16:44.435Z,66.50
2023-03-16T19:19:46.150Z,67.09
2023-03-16T19:22:49.248Z,67.00
2023-03-16T19:25:51.519Z,67.02
2023-03-16T19:28:54.577Z,67.64
2023-03-16T19:31:56.632Z,67.32
2023-03-16T19:34:58.189Z,67.55
2023-03-16T19:37:59.915Z,66.97
2023-03-16T19:41:02.305Z,67.55
2023-03-16T19:44:08.362Z,67.53
2023-03-16T19:47:21.756Z,67.46
2023-03-16T19:50:24.318Z,67.27
2023-03-16T19:53:25.942Z,67.97
2023-03-16T19:56:27.580Z,67.47
2023-03-16T19:59:32.687Z,67.70
2023-03-16T20:02:36.335Z,68.09
2023-03-16T20:05:42.270Z,68.27
2023-03-16T20:08:44.258Z,68.16
2023-03-16T20:11:47.136Z,68.03
2023-03-16T20:14:51.272Z,68.39
2023-03-16T20:17:52.988Z,68.33
2023-03-16T20:20:54.616Z,68.42
2023-03-16T20:23:56.547Z,68.51
2023-03-16T20:26:58.228Z,68.75
2023-03-16T20:30:01.584Z,68.35
2023-03-16T20:33:03.680Z,68.57
2023-03-16T20:36:08.966Z,68.68
2023-03-16T20:39:10.909Z,68.88
2023-03-16T20:42:15.824Z,68.74
2023-03-16T20:45:20.909Z,68.48
2023-03-16T20:48:25.508Z,68.46
2023-03-16T20:51:27.471Z,68.70
2023-03-16T20:54:29.116Z,68.82
2023-03-16T20:57:31.364Z,69.17
2023-03-16T21:00:36.493Z,69.13
2023-03-16T21:03:39.430Z,69.26
2023-03-16T21:06:41.432Z,69.01
2023-03-16T21:09:49.906Z,69.14
2023-03-16T21:12:53.381Z,69.41
2023-03-16T21:15:58.102Z,69.51
2023-03-16T21:18:59.830Z,69.41
2023-03-16T21:22:01.958Z,69.18
2023-03-16T21:25:03.791Z,69.91
2023-03-16T21:28:05.716Z,69.50
2023-03-16T21:31:11.217Z,69.13
2023-03-16T21:34:21.962Z,69.35
2023-03-16T21:37:26.429Z,70.11
2023-03-16T21:40:28.436Z,70.24
2023-03-16T21:43:31.273Z,69.91
2023-03-16T21:46:34.483Z,69.68
2023-03-16T21:49:36.365Z,69.83
2023-03-16T21:52:41.355Z,69.89
2023-03-16T21:55:43.086Z,69.57
2023-03-16T21:58:45.790Z,69.45
2023-03-16T22:02:01.084Z,69.24
2023-03-16T22:05:12.019Z,68.65
2023-03-16T22:08:15.034Z,68.53
2023-03-16T22:11:18.028Z,68.94
2023-03-16T22:14:20.029Z,68.75
2023-03-16T22:17:23.266Z,68.98
2023-03-16T22:20:27.219Z,68.56
2023-03-16T22:23:31.874Z,69.10
2023-03-16T22:26:33.625Z,69.11
2023-03-16T22:29:36.515Z,69.59
2023-03-16T22:32:39.594Z,69.30
2023-03-16T22:35:42.207Z,69.55
2023-03-16T22:38:44.360Z,69.24
2023-03-16T22:41:46.427Z,69.01
2023-03-16T22:44:48.323Z,70.34
2023-03-16T22:47:51.837Z,70.20
2023-03-16T22:50:54.382Z,69.65
2023-03-16T22:53:59.672Z,69.86
2023-03-16T22:57:01.675Z,69.42
2023-03-16T23:00:07.427Z,69.76
2023-03-16T23:03:15.473Z,69.80
2023-03-16T23:06:18.399Z,69.73
2023-03-16T23:09:21.894Z,70.18
2023-03-16T23:12:23.938Z,69.32
2023-03-16T23:15:27.742Z,69.46
2023-03-16T23:18:31.032Z,70.15
2023-03-16T23:21:33.252Z,70.16
2023-03-16T23:24:36.208Z,70.05
2023-03-16T23:27:38.236Z,69.82
2023-03-16T23:30:40.054Z,70.04
2023-03-16T23:33:43.614Z,70.41
2023-03-16T23:36:45.591Z,70.71
2023-03-16T23:39:47.362Z,70.23
2023-03-16T23:42:50.107Z,70.59
2023-03-16T23:45:52.232Z,70.96
2023-03-16T23:48:57.382Z,70.38
2023-03-16T23:52:10.181Z,70.96
2023-03-16T23:55:18.859Z,71.12
2023-03-16T23:58:21.026Z,70.56
